»·PEaware :: UAL2313 KFAT-KLAS

UAL2313 :: KFAT-KLAS

FLIGHT INFORMATION

Flight Status: Arrived
Operator:
United Airlines
More flights by this operator :: More flights under this callsign
Pilot: Sergei F. (8485)
Aircraft: BOEING 737-600
(B736)
More flights by this aircraft type
Origin: KFAT Fresno Yosemite Intl
United States
Destination: KLAS Harry Reid Intl
United States
More flights between these airports :: More routes between these airports
Route: YOSE3 CZQ OAL BASIC COKTL3
File this flight plan on PilotEdge
Remarks:
Altitude:
(Current/Filed)
39,000ft
Speed:
(Current/Filed)
454kts
Departed: 01-Dec-23 07:04 PM
Arrived: 01-Dec-23 08:17 PM
Distance/Time
Traveled:
225nm/1:12
Distance/Time
To Go:
Arrived

Flight Plot

Page will automatically refresh every two minutes.

Flight plan parsing failed; only flown route is shown


Map Options




Map Legend


Flown Route
Filed Route
Departure Airport
Arrival Airport
Navaid (VOR, NDB)
Fix

Horizontal Profiles

Position Reports

Time Latitude Longitude Heading Altitude Ground
Speed
01-Dec-23 18:03 36.771369 -119.717778 304 331ft 0kts
01-Dec-23 18:04 36.771369 -119.717778 304 331ft 0kts
01-Dec-23 18:06 36.771369 -119.717778 304 331ft 0kts
01-Dec-23 18:06 36.771369 -119.717778 304 331ft 0kts
01-Dec-23 18:07 36.771369 -119.717778 304 331ft 0kts
01-Dec-23 18:08 36.771369 -119.717778 304 331ft 0kts
01-Dec-23 18:09 36.771369 -119.717778 304 331ft 0kts
01-Dec-23 18:10 36.771369 -119.717778 304 322ft 0kts
01-Dec-23 18:11 36.771369 -119.717778 304 322ft 0kts
01-Dec-23 18:12 36.771369 -119.717778 304 322ft 0kts
01-Dec-23 18:13 36.771369 -119.717778 304 322ft 0kts
01-Dec-23 18:14 36.771369 -119.717778 304 322ft 0kts
01-Dec-23 18:15 36.771369 -119.717778 304 322ft 0kts
01-Dec-23 18:16 36.771369 -119.717778 304 322ft 0kts
01-Dec-23 18:17 36.771369 -119.717778 304 322ft 0kts
01-Dec-23 18:18 36.771369 -119.717778 304 322ft 0kts
01-Dec-23 18:19 36.771369 -119.717778 304 322ft 0kts
01-Dec-23 18:20 36.771369 -119.717778 304 322ft 0kts
01-Dec-23 18:21 36.771369 -119.717778 304 322ft 0kts
01-Dec-23 18:22 36.771369 -119.717778 304 322ft 0kts
01-Dec-23 18:23 36.771369 -119.717778 304 322ft 0kts
01-Dec-23 18:24 36.771369 -119.717778 304 322ft 0kts
01-Dec-23 18:25 36.771369 -119.717778 304 331ft 0kts
01-Dec-23 18:26 36.771369 -119.717778 304 331ft 0kts
01-Dec-23 18:27 36.771369 -119.717778 304 331ft 0kts
01-Dec-23 18:28 36.771369 -119.717778 304 331ft 0kts
01-Dec-23 18:29 36.771369 -119.717778 304 331ft 0kts
01-Dec-23 18:30 36.771369 -119.717778 304 331ft 0kts
01-Dec-23 18:31 36.771369 -119.717778 304 331ft 0kts
01-Dec-23 18:32 36.771369 -119.717778 304 331ft 0kts
01-Dec-23 18:33 36.771369 -119.717778 304 331ft 0kts
01-Dec-23 18:34 36.771369 -119.717778 304 331ft 0kts
01-Dec-23 18:35 36.771369 -119.717778 304 331ft 0kts
01-Dec-23 18:36 36.771369 -119.717778 304 331ft 0kts
01-Dec-23 18:37 36.771369 -119.717778 304 331ft 0kts
01-Dec-23 18:38 36.771369 -119.717778 304 331ft 0kts
01-Dec-23 18:39 36.771369 -119.717778 304 331ft 0kts
01-Dec-23 18:40 36.771369 -119.717778 304 331ft 0kts
01-Dec-23 18:41 36.771369 -119.717778 304 331ft 0kts
01-Dec-23 18:42 36.771369 -119.717778 304 331ft 0kts
01-Dec-23 18:43 36.771369 -119.717778 304 331ft 0kts
01-Dec-23 18:44 36.771369 -119.717778 304 331ft 0kts
01-Dec-23 18:45 36.771369 -119.717778 304 331ft 0kts
01-Dec-23 18:46 36.771369 -119.717778 304 331ft 0kts
01-Dec-23 18:47 36.771369 -119.717778 304 331ft 0kts
01-Dec-23 18:48 36.771294 -119.717639 304 331ft 1kts
01-Dec-23 18:49 36.770952 -119.717354 4 328ft 1kts
01-Dec-23 18:50 36.770743 -119.717455 34 326ft 0kts
01-Dec-23 18:51 36.770743 -119.717455 34 326ft 0kts
01-Dec-23 18:52 36.770743 -119.717455 34 326ft 0kts
01-Dec-23 18:53 36.770743 -119.717455 34 326ft 0kts
01-Dec-23 18:54 36.770743 -119.717455 34 331ft 0kts
01-Dec-23 18:55 36.770743 -119.717455 34 331ft 0kts
01-Dec-23 18:56 36.770743 -119.717455 34 331ft 0kts
01-Dec-23 18:57 36.771076 -119.717166 35 330ft 6kts
01-Dec-23 18:58 36.772021 -119.715587 124 329ft 6kts
01-Dec-23 18:59 36.770578 -119.713072 125 330ft 10kts
01-Dec-23 19:00 36.769696 -119.710972 46 330ft 2kts
01-Dec-23 19:01 36.769734 -119.710934 37 330ft 0kts
01-Dec-23 19:02 36.770153 -119.710558 34 331ft 4kts
01-Dec-23 19:03 36.771282 -119.711796 305 326ft 54kts
01-Dec-23 19:04 36.793788 -119.751898 303 2427ft 157kts
01-Dec-23 19:05 36.816004 -119.795080 304 5256ft 157kts
01-Dec-23 19:06 36.856475 -119.826656 17 6573ft 213kts
01-Dec-23 19:07 36.908796 -119.773990 49 8368ft 265kts
01-Dec-23 19:08 36.952783 -119.696851 47 10843ft 284kts
01-Dec-23 19:09 37.002007 -119.609914 47 13518ft 330kts
01-Dec-23 19:10 37.058669 -119.508732 48 15954ft 371kts
01-Dec-23 19:11 37.118841 -119.400502 48 19035ft 389kts
01-Dec-23 19:12 37.181719 -119.287178 47 21859ft 403kts
01-Dec-23 19:13 37.246586 -119.169907 47 23197ft 412kts
01-Dec-23 19:14 37.312314 -119.050686 46 24419ft 418kts
01-Dec-23 19:15 37.378469 -118.930196 45 26968ft 421kts
01-Dec-23 19:16 37.443534 -118.811077 44 30452ft 405kts
01-Dec-23 19:17 37.507865 -118.693577 44 31879ft 423kts
01-Dec-23 19:18 37.575987 -118.568228 44 33225ft 434kts
01-Dec-23 19:19 37.644018 -118.442305 44 34619ft 435kts
01-Dec-23 19:20 37.712751 -118.314924 45 35645ft 441kts
01-Dec-23 19:21 37.781934 -118.186088 45 36689ft 444kts
01-Dec-23 19:22 37.851385 -118.056274 46 37634ft 448kts
01-Dec-23 19:23 37.921530 -117.924611 47 38415ft 455kts
01-Dec-23 19:24 37.966220 -117.774830 94 38869ft 498kts
01-Dec-23 19:25 37.879175 -117.637505 141 39084ft 521kts
01-Dec-23 19:26 37.766327 -117.523440 140 39084ft 515kts
01-Dec-23 19:27 37.656079 -117.409021 140 39087ft 512kts
01-Dec-23 19:28 37.546579 -117.295850 140 39094ft 510kts
01-Dec-23 19:29 37.436220 -117.182317 141 39096ft 511kts
01-Dec-23 19:30 37.325490 -117.069074 143 39095ft 514kts
01-Dec-23 19:31 37.207633 -116.967389 147 39103ft 515kts
01-Dec-23 19:32 37.089450 -116.865700 146 39084ft 515kts
01-Dec-23 19:33 36.971597 -116.764342 146 38210ft 517kts
01-Dec-23 19:34 36.853483 -116.663212 145 35281ft 516kts
01-Dec-23 19:35 36.734955 -116.562098 144 31892ft 522kts
01-Dec-23 19:36 36.620069 -116.451677 127 28276ft 514kts
01-Dec-23 19:37 36.529685 -116.319197 127 25585ft 491kts
01-Dec-23 19:38 36.440789 -116.194128 128 22944ft 473kts
01-Dec-23 19:39 36.355848 -116.074935 129 20417ft 451kts
01-Dec-23 19:40 36.276218 -115.963681 128 19291ft 406kts
01-Dec-23 19:41 36.207308 -115.860015 123 18085ft 378kts
01-Dec-23 19:42 36.144851 -115.760289 124 16639ft 360kts
01-Dec-23 19:43 36.107542 -115.650518 105 15329ft 341kts
01-Dec-23 19:44 36.074556 -115.542113 107 14064ft 333kts
01-Dec-23 19:45 36.041735 -115.436074 107 12744ft 327kts
01-Dec-23 19:46 36.013780 -115.331536 89 11513ft 313kts
01-Dec-23 19:47 36.008926 -115.225490 88 10355ft 306kts
01-Dec-23 19:48 36.003219 -115.123651 89 9173ft 280kts
01-Dec-23 19:49 35.999031 -115.035540 85 8242ft 241kts
01-Dec-23 19:50 35.998884 -114.956224 85 7130ft 218kts
01-Dec-23 19:51 36.023105 -114.905618 25 6161ft 165kts
01-Dec-23 19:52 36.062653 -114.914280 326 5402ft 163kts
01-Dec-23 19:53 36.073450 -114.963695 271 4572ft 162kts
01-Dec-23 19:54 36.073775 -115.012586 270 3871ft 133kts
01-Dec-23 19:55 36.073503 -115.058801 269 3123ft 135kts
01-Dec-23 19:56 36.073792 -115.103934 268 2461ft 129kts
01-Dec-23 19:57 36.074059 -115.153165 274 3397ft 150kts
01-Dec-23 19:58 36.069800 -115.203647 226 4527ft 163kts
01-Dec-23 19:59 36.023344 -115.223678 178 5830ft 197kts
01-Dec-23 20:00 35.995039 -115.166828 89 6829ft 242kts
01-Dec-23 20:01 35.992849 -115.078510 81 6473ft 271kts
01-Dec-23 20:02 35.995139 -114.990390 86 6999ft 254kts
01-Dec-23 20:03 35.995458 -114.904030 85 7017ft 249kts
01-Dec-23 20:04 35.996247 -114.818304 86 7008ft 250kts
01-Dec-23 20:05 35.958888 -114.756413 164 7004ft 239kts
01-Dec-23 20:06 35.914625 -114.795292 265 7023ft 212kts
01-Dec-23 20:07 35.945353 -114.842626 340 7024ft 206kts
01-Dec-23 20:08 36.000454 -114.864719 354 6984ft 207kts
01-Dec-23 20:09 36.052970 -114.844706 7 6565ft 184kts
01-Dec-23 20:10 36.073773 -114.891930 273 5836ft 186kts
01-Dec-23 20:11 36.073967 -114.951694 271 4909ft 152kts
01-Dec-23 20:12 36.073855 -115.001028 270 4156ft 134kts
01-Dec-23 20:13 36.073775 -115.046595 271 3372ft 131kts
01-Dec-23 20:14 36.073726 -115.092858 268 2623ft 135kts
01-Dec-23 20:15 36.073654 -115.137335 270 2086ft 100kts
01-Dec-23 20:16 36.074659 -115.150396 300 2121ft 10kts
01-Dec-23 20:17 36.074890 -115.150805 309 2120ft 0kts
01-Dec-23 20:18 36.074890 -115.150805 309 2120ft 0kts
01-Dec-23 20:19 36.075392 -115.151359 326 2121ft 8kts
01-Dec-23 20:20 36.077352 -115.152514 334 2128ft 4kts
01-Dec-23 20:21 36.077937 -115.149525 93 2114ft 17kts
01-Dec-23 20:22 36.077543 -115.142701 89 2092ft 12kts
01-Dec-23 20:23 36.078662 -115.139761 44 2078ft 8kts
01-Dec-23 20:24 36.079933 -115.139022 314 2075ft 5kts
01-Dec-23 20:25 36.080192 -115.139349 315 2077ft 0kts
01-Dec-23 20:26 36.080192 -115.139349 315 2077ft 0kts
01-Dec-23 20:27 36.080192 -115.139349 315 2077ft 0kts
01-Dec-23 20:28 36.080192 -115.139349 315 2077ft 0kts
01-Dec-23 20:29 36.080192 -115.139349 315 2077ft 0kts
01-Dec-23 20:30 36.080192 -115.139349 315 2077ft 0kts

Navigation Log

Ident Type
Flight plan parsing failed, navigation log unavailable